sensor_id;sensor_type;location;lat;lon;timestamp;P1;durP1;ratioP1;P2;durP2;ratioP2
73672;SDS011;61972;19.480;-99.240;2024-03-22T00:02:06;11.68;;;6.90;;
73672;SDS011;61972;19.480;-99.240;2024-03-22T00:04:34;12.10;;;7.40;;
73672;SDS011;61972;19.480;-99.240;2024-03-22T00:07:01;9.05;;;6.57;;
73672;SDS011;61972;19.480;-99.240;2024-03-22T00:09:28;10.83;;;6.70;;
73672;SDS011;61972;19.480;-99.240;2024-03-22T00:11:54;12.38;;;6.70;;
73672;SDS011;61972;19.480;-99.240;2024-03-22T00:14:20;10.18;;;7.00;;
73672;SDS011;61972;19.480;-99.240;2024-03-22T00:16:47;11.32;;;6.63;;
73672;SDS011;61972;19.480;-99.240;2024-03-22T00:19:13;11.02;;;6.75;;
73672;SDS011;61972;19.480;-99.240;2024-03-22T00:21:39;10.27;;;6.20;;
73672;SDS011;61972;19.480;-99.240;2024-03-22T00:24:05;10.07;;;6.35;;
73672;SDS011;61972;19.480;-99.240;2024-03-22T00:26:32;11.57;;;6.70;;
73672;SDS011;61972;19.480;-99.240;2024-03-22T00:28:59;9.30;;;6.25;;
73672;SDS011;61972;19.480;-99.240;2024-03-22T00:31:25;8.50;;;6.18;;
73672;SDS011;61972;19.480;-99.240;2024-03-22T00:33:51;12.17;;;6.67;;
73672;SDS011;61972;19.480;-99.240;2024-03-22T00:36:17;11.20;;;6.00;;
73672;SDS011;61972;19.480;-99.240;2024-03-22T00:38:43;10.77;;;6.55;;
73672;SDS011;61972;19.480;-99.240;2024-03-22T00:41:10;8.65;;;6.20;;
73672;SDS011;61972;19.480;-99.240;2024-03-22T00:43:36;13.13;;;6.75;;
73672;SDS011;61972;19.480;-99.240;2024-03-22T00:46:02;12.83;;;8.07;;
73672;SDS011;61972;19.480;-99.240;2024-03-22T00:48:29;14.45;;;7.68;;
73672;SDS011;61972;19.480;-99.240;2024-03-22T00:50:56;12.75;;;7.97;;
73672;SDS011;61972;19.480;-99.240;2024-03-22T00:53:22;16.52;;;9.80;;
73672;SDS011;61972;19.480;-99.240;2024-03-22T00:55:48;15.50;;;10.40;;
73672;SDS011;61972;19.480;-99.240;2024-03-22T00:58:17;14.20;;;9.27;;
73672;SDS011;61972;19.480;-99.240;2024-03-22T01:00:44;18.40;;;11.00;;
73672;SDS011;61972;19.480;-99.240;2024-03-22T01:03:11;13.63;;;10.48;;
73672;SDS011;61972;19.480;-99.240;2024-03-22T01:05:38;13.77;;;10.70;;
73672;SDS011;61972;19.480;-99.240;2024-03-22T01:08:05;18.10;;;10.70;;
73672;SDS011;61972;19.480;-99.240;2024-03-22T01:10:33;14.17;;;10.03;;
73672;SDS011;61972;19.480;-99.240;2024-03-22T01:13:00;15.73;;;11.05;;
73672;SDS011;61972;19.480;-99.240;2024-03-22T01:15:26;16.90;;;10.98;;
73672;SDS011;61972;19.480;-99.240;2024-03-22T01:17:52;13.90;;;10.73;;
73672;SDS011;61972;19.480;-99.240;2024-03-22T01:20:18;18.50;;;10.40;;
73672;SDS011;61972;19.480;-99.240;2024-03-22T01:22:45;15.57;;;9.97;;
73672;SDS011;61972;19.480;-99.240;2024-03-22T01:25:11;16.48;;;9.60;;
73672;SDS011;61972;19.480;-99.240;2024-03-22T01:27:37;17.38;;;9.55;;
73672;SDS011;61972;19.480;-99.240;2024-03-22T01:30:04;12.88;;;9.10;;
73672;SDS011;61972;19.480;-99.240;2024-03-22T01:32:33;12.85;;;9.10;;
73672;SDS011;61972;19.480;-99.240;2024-03-22T01:35:00;13.10;;;8.70;;
73672;SDS011;61972;19.480;-99.240;2024-03-22T01:37:26;16.10;;;9.07;;
73672;SDS011;61972;19.480;-99.240;2024-03-22T01:39:53;13.43;;;8.43;;
73672;SDS011;61972;19.480;-99.240;2024-03-22T01:42:19;12.65;;;8.20;;
73672;SDS011;61972;19.480;-99.240;2024-03-22T01:44:45;15.18;;;8.90;;
73672;SDS011;61972;19.480;-99.240;2024-03-22T01:47:11;13.17;;;8.40;;
73672;SDS011;61972;19.480;-99.240;2024-03-22T01:49:38;12.57;;;8.18;;
73672;SDS011;61972;19.480;-99.240;2024-03-22T01:52:04;13.65;;;9.07;;
73672;SDS011;61972;19.480;-99.240;2024-03-22T01:54:30;12.27;;;8.65;;
73672;SDS011;61972;19.480;-99.240;2024-03-22T01:56:56;14.60;;;8.93;;
73672;SDS011;61972;19.480;-99.240;2024-03-22T01:59:23;13.67;;;8.40;;
73672;SDS011;61972;19.480;-99.240;2024-03-22T02:01:49;15.13;;;9.05;;
73672;SDS011;61972;19.480;-99.240;2024-03-22T02:04:15;14.02;;;8.77;;
73672;SDS011;61972;19.480;-99.240;2024-03-22T02:06:42;14.30;;;8.65;;
73672;SDS011;61972;19.480;-99.240;2024-03-22T02:09:08;15.95;;;9.52;;
73672;SDS011;61972;19.480;-99.240;2024-03-22T02:11:34;13.77;;;8.90;;
73672;SDS011;61972;19.480;-99.240;2024-03-22T02:14:05;15.55;;;8.70;;
73672;SDS011;61972;19.480;-99.240;2024-03-22T02:16:31;12.52;;;8.68;;
73672;SDS011;61972;19.480;-99.240;2024-03-22T02:18:57;11.35;;;8.18;;
73672;SDS011;61972;19.480;-99.240;2024-03-22T02:21:24;11.18;;;8.65;;
73672;SDS011;61972;19.480;-99.240;2024-03-22T02:23:50;14.30;;;9.70;;
73672;SDS011;61972;19.480;-99.240;2024-03-22T02:26:17;15.07;;;9.50;;
73672;SDS011;61972;19.480;-99.240;2024-03-22T02:28:43;12.77;;;8.80;;
73672;SDS011;61972;19.480;-99.240;2024-03-22T02:31:09;12.63;;;8.43;;
73672;SDS011;61972;19.480;-99.240;2024-03-22T02:33:35;14.10;;;10.30;;
73672;SDS011;61972;19.480;-99.240;2024-03-22T02:36:01;14.53;;;9.83;;
73672;SDS011;61972;19.480;-99.240;2024-03-22T02:38:27;15.63;;;9.20;;
73672;SDS011;61972;19.480;-99.240;2024-03-22T02:40:53;15.30;;;10.20;;
73672;SDS011;61972;19.480;-99.240;2024-03-22T02:43:21;13.48;;;9.32;;
73672;SDS011;61972;19.480;-99.240;2024-03-22T02:45:47;16.33;;;10.60;;
73672;SDS011;61972;19.480;-99.240;2024-03-22T02:48:13;13.73;;;9.83;;
73672;SDS011;61972;19.480;-99.240;2024-03-22T02:50:41;16.58;;;10.73;;
73672;SDS011;61972;19.480;-99.240;2024-03-22T02:53:07;16.10;;;10.68;;
73672;SDS011;61972;19.480;-99.240;2024-03-22T02:55:37;18.33;;;10.73;;
73672;SDS011;61972;19.480;-99.240;2024-03-22T02:58:05;16.98;;;10.75;;
73672;SDS011;61972;19.480;-99.240;2024-03-22T03:00:35;19.03;;;10.87;;
73672;SDS011;61972;19.480;-99.240;2024-03-22T03:03:02;18.75;;;11.15;;
73672;SDS011;61972;19.480;-99.240;2024-03-22T03:05:28;16.85;;;10.63;;
73672;SDS011;61972;19.480;-99.240;2024-03-22T03:07:54;16.75;;;10.75;;
73672;SDS011;61972;19.480;-99.240;2024-03-22T03:10:21;19.00;;;11.07;;
73672;SDS011;61972;19.480;-99.240;2024-03-22T03:12:47;15.27;;;11.20;;
73672;SDS011;61972;19.480;-99.240;2024-03-22T03:15:13;20.63;;;10.80;;
73672;SDS011;61972;19.480;-99.240;2024-03-22T03:17:39;22.08;;;12.68;;
73672;SDS011;61972;19.480;-99.240;2024-03-22T03:20:05;17.55;;;11.77;;
73672;SDS011;61972;19.480;-99.240;2024-03-22T03:22:37;18.58;;;12.15;;
73672;SDS011;61972;19.480;-99.240;2024-03-22T03:25:03;20.80;;;12.77;;
73672;SDS011;61972;19.480;-99.240;2024-03-22T03:27:30;18.83;;;12.93;;
73672;SDS011;61972;19.480;-99.240;2024-03-22T03:29:56;23.08;;;12.98;;
73672;SDS011;61972;19.480;-99.240;2024-03-22T03:32:22;22.63;;;12.43;;
73672;SDS011;61972;19.480;-99.240;2024-03-22T03:34:50;23.20;;;11.80;;
73672;SDS011;61972;19.480;-99.240;2024-03-22T03:37:16;22.33;;;12.83;;
73672;SDS011;61972;19.480;-99.240;2024-03-22T03:39:42;20.08;;;12.18;;
73672;SDS011;61972;19.480;-99.240;2024-03-22T03:42:08;25.35;;;11.73;;
73672;SDS011;61972;19.480;-99.240;2024-03-22T03:44:35;17.02;;;11.20;;
73672;SDS011;61972;19.480;-99.240;2024-03-22T03:47:01;17.10;;;12.23;;
73672;SDS011;61972;19.480;-99.240;2024-03-22T03:49:27;18.30;;;11.53;;
73672;SDS011;61972;19.480;-99.240;2024-03-22T03:51:54;20.27;;;12.07;;
73672;SDS011;61972;19.480;-99.240;2024-03-22T03:54:20;19.48;;;11.75;;
73672;SDS011;61972;19.480;-99.240;2024-03-22T03:56:46;21.55;;;12.10;;
73672;SDS011;61972;19.480;-99.240;2024-03-22T03:59:12;20.48;;;11.85;;
73672;SDS011;61972;19.480;-99.240;2024-03-22T04:01:38;18.83;;;11.67;;
73672;SDS011;61972;19.480;-99.240;2024-03-22T04:04:04;20.23;;;12.30;;
73672;SDS011;61972;19.480;-99.240;2024-03-22T04:06:30;19.85;;;12.35;;
73672;SDS011;61972;19.480;-99.240;2024-03-22T04:08:56;21.33;;;12.45;;
73672;SDS011;61972;19.480;-99.240;2024-03-22T04:11:23;18.35;;;12.18;;
73672;SDS011;61972;19.480;-99.240;2024-03-22T04:13:49;21.03;;;12.13;;
73672;SDS011;61972;19.480;-99.240;2024-03-22T04:16:15;21.73;;;12.65;;
73672;SDS011;61972;19.480;-99.240;2024-03-22T04:18:41;17.95;;;11.90;;
73672;SDS011;61972;19.480;-99.240;2024-03-22T04:21:07;18.33;;;12.45;;
73672;SDS011;61972;19.480;-99.240;2024-03-22T04:23:34;19.98;;;11.52;;
73672;SDS011;61972;19.480;-99.240;2024-03-22T04:26:00;16.27;;;10.97;;
73672;SDS011;61972;19.480;-99.240;2024-03-22T04:28:28;18.90;;;11.40;;
73672;SDS011;61972;19.480;-99.240;2024-03-22T04:33:27;16.63;;;11.32;;
73672;SDS011;61972;19.480;-99.240;2024-03-22T04:35:54;15.65;;;10.55;;
73672;SDS011;61972;19.480;-99.240;2024-03-22T04:38:23;14.40;;;10.47;;
73672;SDS011;61972;19.480;-99.240;2024-03-22T04:40:51;17.52;;;10.35;;
73672;SDS011;61972;19.480;-99.240;2024-03-22T04:43:18;17.15;;;10.23;;
73672;SDS011;61972;19.480;-99.240;2024-03-22T04:45:45;18.17;;;10.00;;
73672;SDS011;61972;19.480;-99.240;2024-03-22T04:48:16;14.20;;;9.63;;
73672;SDS011;61972;19.480;-99.240;2024-03-22T04:50:43;19.07;;;9.70;;
73672;SDS011;61972;19.480;-99.240;2024-03-22T04:53:10;13.00;;;9.38;;
73672;SDS011;61972;19.480;-99.240;2024-03-22T04:55:36;15.40;;;9.43;;
73672;SDS011;61972;19.480;-99.240;2024-03-22T04:58:03;16.35;;;10.10;;
73672;SDS011;61972;19.480;-99.240;2024-03-22T05:00:29;17.75;;;9.85;;
73672;SDS011;61972;19.480;-99.240;2024-03-22T05:02:55;17.93;;;10.00;;
73672;SDS011;61972;19.480;-99.240;2024-03-22T05:05:21;14.68;;;9.95;;
73672;SDS011;61972;19.480;-99.240;2024-03-22T05:07:47;14.63;;;10.32;;
73672;SDS011;61972;19.480;-99.240;2024-03-22T05:10:14;13.73;;;9.27;;
73672;SDS011;61972;19.480;-99.240;2024-03-22T05:12:42;15.98;;;9.93;;
73672;SDS011;61972;19.480;-99.240;2024-03-22T05:15:08;16.60;;;9.70;;
73672;SDS011;61972;19.480;-99.240;2024-03-22T05:17:34;13.48;;;9.07;;
73672;SDS011;61972;19.480;-99.240;2024-03-22T05:20:00;15.43;;;9.20;;
73672;SDS011;61972;19.480;-99.240;2024-03-22T05:22:27;12.57;;;9.05;;
73672;SDS011;61972;19.480;-99.240;2024-03-22T05:24:53;11.45;;;8.73;;
73672;SDS011;61972;19.480;-99.240;2024-03-22T05:27:20;13.13;;;8.60;;
73672;SDS011;61972;19.480;-99.240;2024-03-22T05:29:46;13.63;;;8.98;;
73672;SDS011;61972;19.480;-99.240;2024-03-22T05:32:12;12.32;;;8.35;;
73672;SDS011;61972;19.480;-99.240;2024-03-22T05:34:38;10.88;;;8.30;;
73672;SDS011;61972;19.480;-99.240;2024-03-22T05:37:04;12.85;;;8.65;;
73672;SDS011;61972;19.480;-99.240;2024-03-22T05:39:30;13.27;;;7.67;;
73672;SDS011;61972;19.480;-99.240;2024-03-22T05:41:56;12.25;;;8.20;;
73672;SDS011;61972;19.480;-99.240;2024-03-22T05:44:22;14.07;;;9.10;;
73672;SDS011;61972;19.480;-99.240;2024-03-22T05:46:48;11.68;;;7.88;;
73672;SDS011;61972;19.480;-99.240;2024-03-22T05:49:15;11.43;;;8.25;;
73672;SDS011;61972;19.480;-99.240;2024-03-22T05:51:41;12.77;;;7.87;;
73672;SDS011;61972;19.480;-99.240;2024-03-22T05:54:09;10.88;;;7.95;;
73672;SDS011;61972;19.480;-99.240;2024-03-22T05:56:35;10.77;;;7.85;;
73672;SDS011;61972;19.480;-99.240;2024-03-22T05:59:01;10.77;;;7.72;;
73672;SDS011;61972;19.480;-99.240;2024-03-22T06:01:28;13.27;;;8.20;;
73672;SDS011;61972;19.480;-99.240;2024-03-22T06:03:54;10.47;;;7.67;;
73672;SDS011;61972;19.480;-99.240;2024-03-22T06:06:20;10.52;;;7.57;;
73672;SDS011;61972;19.480;-99.240;2024-03-22T06:08:50;11.05;;;7.72;;
73672;SDS011;61972;19.480;-99.240;2024-03-22T06:11:20;10.85;;;7.53;;
73672;SDS011;61972;19.480;-99.240;2024-03-22T06:13:47;15.52;;;8.15;;
73672;SDS011;61972;19.480;-99.240;2024-03-22T06:16:14;13.00;;;7.50;;
73672;SDS011;61972;19.480;-99.240;2024-03-22T06:18:40;14.90;;;7.55;;
73672;SDS011;61972;19.480;-99.240;2024-03-22T06:21:06;10.05;;;7.50;;
73672;SDS011;61972;19.480;-99.240;2024-03-22T06:23:32;11.30;;;8.10;;
73672;SDS011;61972;19.480;-99.240;2024-03-22T06:25:59;10.45;;;7.50;;
73672;SDS011;61972;19.480;-99.240;2024-03-22T06:28:26;14.77;;;7.53;;
73672;SDS011;61972;19.480;-99.240;2024-03-22T06:30:54;12.02;;;7.90;;
73672;SDS011;61972;19.480;-99.240;2024-03-22T06:33:20;11.73;;;7.38;;
73672;SDS011;61972;19.480;-99.240;2024-03-22T06:35:46;10.68;;;7.60;;
73672;SDS011;61972;19.480;-99.240;2024-03-22T06:38:13;12.18;;;7.15;;
73672;SDS011;61972;19.480;-99.240;2024-03-22T06:40:39;12.23;;;7.30;;
73672;SDS011;61972;19.480;-99.240;2024-03-22T06:43:05;11.60;;;7.30;;
73672;SDS011;61972;19.480;-99.240;2024-03-22T06:45:31;12.23;;;7.18;;
73672;SDS011;61972;19.480;-99.240;2024-03-22T06:47:57;11.55;;;6.30;;
73672;SDS011;61972;19.480;-99.240;2024-03-22T06:50:23;11.82;;;6.88;;
73672;SDS011;61972;19.480;-99.240;2024-03-22T06:52:51;10.60;;;6.40;;
73672;SDS011;61972;19.480;-99.240;2024-03-22T06:55:18;10.77;;;7.10;;
73672;SDS011;61972;19.480;-99.240;2024-03-22T06:57:48;9.13;;;6.70;;
73672;SDS011;61972;19.480;-99.240;2024-03-22T07:00:15;10.68;;;6.78;;
73672;SDS011;61972;19.480;-99.240;2024-03-22T07:02:42;9.40;;;6.47;;
73672;SDS011;61972;19.480;-99.240;2024-03-22T07:05:10;11.33;;;6.53;;
73672;SDS011;61972;19.480;-99.240;2024-03-22T07:07:36;12.00;;;6.43;;
73672;SDS011;61972;19.480;-99.240;2024-03-22T07:10:04;10.13;;;7.00;;
73672;SDS011;61972;19.480;-99.240;2024-03-22T07:12:31;9.15;;;6.25;;
73672;SDS011;61972;19.480;-99.240;2024-03-22T07:15:01;11.55;;;6.65;;
73672;SDS011;61972;19.480;-99.240;2024-03-22T07:17:28;8.33;;;6.20;;
73672;SDS011;61972;19.480;-99.240;2024-03-22T07:19:54;9.25;;;6.60;;
73672;SDS011;61972;19.480;-99.240;2024-03-22T07:22:21;9.30;;;6.25;;
73672;SDS011;61972;19.480;-99.240;2024-03-22T07:24:47;7.65;;;5.80;;
73672;SDS011;61972;19.480;-99.240;2024-03-22T07:27:14;8.13;;;6.03;;
73672;SDS011;61972;19.480;-99.240;2024-03-22T07:29:41;15.03;;;6.60;;
73672;SDS011;61972;19.480;-99.240;2024-03-22T07:32:07;12.57;;;6.10;;
73672;SDS011;61972;19.480;-99.240;2024-03-22T07:34:33;12.32;;;5.80;;
73672;SDS011;61972;19.480;-99.240;2024-03-22T07:36:59;9.05;;;5.97;;
73672;SDS011;61972;19.480;-99.240;2024-03-22T07:39:26;9.57;;;5.60;;
73672;SDS011;61972;19.480;-99.240;2024-03-22T07:41:54;11.73;;;5.90;;
73672;SDS011;61972;19.480;-99.240;2024-03-22T07:44:21;11.15;;;5.80;;
73672;SDS011;61972;19.480;-99.240;2024-03-22T07:46:49;9.27;;;6.10;;
73672;SDS011;61972;19.480;-99.240;2024-03-22T07:49:15;8.63;;;6.00;;
73672;SDS011;61972;19.480;-99.240;2024-03-22T07:51:41;8.48;;;5.50;;
73672;SDS011;61972;19.480;-99.240;2024-03-22T07:54:07;8.27;;;5.77;;
73672;SDS011;61972;19.480;-99.240;2024-03-22T07:56:34;7.22;;;5.20;;
73672;SDS011;61972;19.480;-99.240;2024-03-22T07:59:00;7.88;;;5.60;;
73672;SDS011;61972;19.480;-99.240;2024-03-22T08:01:26;8.57;;;5.80;;
73672;SDS011;61972;19.480;-99.240;2024-03-22T08:03:52;7.72;;;5.88;;
73672;SDS011;61972;19.480;-99.240;2024-03-22T08:06:18;7.60;;;5.57;;
73672;SDS011;61972;19.480;-99.240;2024-03-22T08:08:45;8.32;;;6.03;;
73672;SDS011;61972;19.480;-99.240;2024-03-22T08:11:11;8.13;;;5.28;;
73672;SDS011;61972;19.480;-99.240;2024-03-22T08:13:37;7.78;;;5.25;;
73672;SDS011;61972;19.480;-99.240;2024-03-22T08:16:03;8.80;;;5.78;;
73672;SDS011;61972;19.480;-99.240;2024-03-22T08:18:31;7.20;;;5.33;;
73672;SDS011;61972;19.480;-99.240;2024-03-22T08:21:00;9.10;;;5.30;;
73672;SDS011;61972;19.480;-99.240;2024-03-22T08:23:27;9.32;;;6.00;;
73672;SDS011;61972;19.480;-99.240;2024-03-22T08:25:53;7.80;;;5.15;;
73672;SDS011;61972;19.480;-99.240;2024-03-22T08:28:19;7.38;;;5.10;;
73672;SDS011;61972;19.480;-99.240;2024-03-22T08:30:45;7.97;;;5.20;;
73672;SDS011;61972;19.480;-99.240;2024-03-22T08:33:11;7.43;;;5.50;;
73672;SDS011;61972;19.480;-99.240;2024-03-22T08:35:37;8.18;;;5.63;;
73672;SDS011;61972;19.480;-99.240;2024-03-22T08:38:04;7.90;;;5.03;;
73672;SDS011;61972;19.480;-99.240;2024-03-22T08:40:38;7.68;;;5.07;;
73672;SDS011;61972;19.480;-99.240;2024-03-22T08:43:05;7.00;;;4.77;;
73672;SDS011;61972;19.480;-99.240;2024-03-22T08:45:34;7.82;;;4.90;;
73672;SDS011;61972;19.480;-99.240;2024-03-22T08:48:01;7.07;;;4.72;;
73672;SDS011;61972;19.480;-99.240;2024-03-22T08:50:27;6.82;;;4.60;;
73672;SDS011;61972;19.480;-99.240;2024-03-22T08:52:54;9.65;;;4.70;;
73672;SDS011;61972;19.480;-99.240;2024-03-22T08:55:20;7.23;;;4.50;;
73672;SDS011;61972;19.480;-99.240;2024-03-22T08:57:46;7.35;;;4.80;;
73672;SDS011;61972;19.480;-99.240;2024-03-22T09:00:12;7.63;;;4.63;;
73672;SDS011;61972;19.480;-99.240;2024-03-22T09:02:38;6.63;;;4.50;;
73672;SDS011;61972;19.480;-99.240;2024-03-22T09:05:05;7.78;;;5.10;;
73672;SDS011;61972;19.480;-99.240;2024-03-22T09:07:33;6.87;;;4.63;;
73672;SDS011;61972;19.480;-99.240;2024-03-22T09:10:00;6.70;;;4.57;;
73672;SDS011;61972;19.480;-99.240;2024-03-22T09:12:26;7.75;;;4.90;;
73672;SDS011;61972;19.480;-99.240;2024-03-22T09:14:53;6.75;;;4.70;;
73672;SDS011;61972;19.480;-99.240;2024-03-22T09:17:19;6.53;;;4.60;;
73672;SDS011;61972;19.480;-99.240;2024-03-22T09:19:45;6.70;;;4.37;;
73672;SDS011;61972;19.480;-99.240;2024-03-22T09:22:11;5.90;;;4.13;;
73672;SDS011;61972;19.480;-99.240;2024-03-22T09:24:38;7.55;;;4.70;;
73672;SDS011;61972;19.480;-99.240;2024-03-22T09:27:04;6.22;;;4.07;;
73672;SDS011;61972;19.480;-99.240;2024-03-22T09:29:34;5.85;;;3.97;;
73672;SDS011;61972;19.480;-99.240;2024-03-22T09:32:01;6.00;;;4.20;;
73672;SDS011;61972;19.480;-99.240;2024-03-22T09:34:28;5.57;;;4.18;;
73672;SDS011;61972;19.480;-99.240;2024-03-22T09:36:58;5.70;;;4.10;;
73672;SDS011;61972;19.480;-99.240;2024-03-22T09:39:24;6.90;;;4.45;;
73672;SDS011;61972;19.480;-99.240;2024-03-22T09:41:52;6.07;;;4.55;;
73672;SDS011;61972;19.480;-99.240;2024-03-22T09:44:18;6.50;;;4.10;;
73672;SDS011;61972;19.480;-99.240;2024-03-22T09:46:47;6.00;;;4.40;;
73672;SDS011;61972;19.480;-99.240;2024-03-22T09:49:16;6.18;;;4.30;;
73672;SDS011;61972;19.480;-99.240;2024-03-22T09:51:43;6.28;;;4.22;;
73672;SDS011;61972;19.480;-99.240;2024-03-22T09:54:10;6.00;;;4.30;;
73672;SDS011;61972;19.480;-99.240;2024-03-22T09:56:39;7.10;;;4.30;;
73672;SDS011;61972;19.480;-99.240;2024-03-22T09:59:05;5.68;;;3.95;;
73672;SDS011;61972;19.480;-99.240;2024-03-22T10:01:32;5.97;;;3.92;;
73672;SDS011;61972;19.480;-99.240;2024-03-22T10:04:00;6.65;;;4.07;;
73672;SDS011;61972;19.480;-99.240;2024-03-22T10:06:26;5.75;;;4.15;;
73672;SDS011;61972;19.480;-99.240;2024-03-22T10:08:52;5.90;;;4.03;;
73672;SDS011;61972;19.480;-99.240;2024-03-22T10:11:18;5.38;;;3.85;;
73672;SDS011;61972;19.480;-99.240;2024-03-22T10:13:45;5.82;;;3.80;;
73672;SDS011;61972;19.480;-99.240;2024-03-22T10:16:16;5.15;;;3.58;;
73672;SDS011;61972;19.480;-99.240;2024-03-22T10:18:42;5.45;;;3.95;;
73672;SDS011;61972;19.480;-99.240;2024-03-22T10:21:08;5.80;;;3.80;;
73672;SDS011;61972;19.480;-99.240;2024-03-22T10:23:35;5.40;;;3.70;;
73672;SDS011;61972;19.480;-99.240;2024-03-22T10:26:01;5.35;;;4.05;;
73672;SDS011;61972;19.480;-99.240;2024-03-22T10:28:27;5.78;;;4.00;;
73672;SDS011;61972;19.480;-99.240;2024-03-22T10:30:54;5.35;;;3.53;;
73672;SDS011;61972;19.480;-99.240;2024-03-22T10:33:21;5.13;;;3.53;;
73672;SDS011;61972;19.480;-99.240;2024-03-22T10:35:52;5.53;;;3.78;;
73672;SDS011;61972;19.480;-99.240;2024-03-22T10:38:19;5.28;;;3.55;;
73672;SDS011;61972;19.480;-99.240;2024-03-22T10:40:46;6.07;;;3.22;;
73672;SDS011;61972;19.480;-99.240;2024-03-22T10:43:13;5.97;;;3.97;;
73672;SDS011;61972;19.480;-99.240;2024-03-22T10:45:42;4.90;;;3.57;;
73672;SDS011;61972;19.480;-99.240;2024-03-22T10:48:13;5.53;;;3.80;;
73672;SDS011;61972;19.480;-99.240;2024-03-22T10:50:45;6.13;;;3.80;;
73672;SDS011;61972;19.480;-99.240;2024-03-22T10:53:16;5.38;;;3.63;;
73672;SDS011;61972;19.480;-99.240;2024-03-22T10:55:48;6.10;;;3.80;;
73672;SDS011;61972;19.480;-99.240;2024-03-22T10:58:16;7.30;;;3.63;;
73672;SDS011;61972;19.480;-99.240;2024-03-22T11:00:47;4.80;;;3.28;;
73672;SDS011;61972;19.480;-99.240;2024-03-22T11:03:19;5.03;;;3.58;;
73672;SDS011;61972;19.480;-99.240;2024-03-22T11:05:50;5.10;;;3.28;;
73672;SDS011;61972;19.480;-99.240;2024-03-22T11:08:26;4.82;;;3.33;;
73672;SDS011;61972;19.480;-99.240;2024-03-22T11:11:08;4.47;;;3.13;;
73672;SDS011;61972;19.480;-99.240;2024-03-22T11:13:36;5.13;;;3.45;;
73672;SDS011;61972;19.480;-99.240;2024-03-22T11:16:04;5.53;;;3.78;;
73672;SDS011;61972;19.480;-99.240;2024-03-22T11:18:30;4.85;;;3.20;;
73672;SDS011;61972;19.480;-99.240;2024-03-22T11:20:57;5.15;;;3.25;;
73672;SDS011;61972;19.480;-99.240;2024-03-22T11:23:24;4.00;;;2.87;;
73672;SDS011;61972;19.480;-99.240;2024-03-22T11:25:50;4.97;;;3.20;;
73672;SDS011;61972;19.480;-99.240;2024-03-22T11:28:17;7.03;;;3.50;;
73672;SDS011;61972;19.480;-99.240;2024-03-22T11:30:45;4.20;;;3.10;;
73672;SDS011;61972;19.480;-99.240;2024-03-22T11:33:12;4.65;;;3.22;;
73672;SDS011;61972;19.480;-99.240;2024-03-22T11:35:38;5.10;;;3.13;;
73672;SDS011;61972;19.480;-99.240;2024-03-22T11:38:07;6.18;;;3.40;;
73672;SDS011;61972;19.480;-99.240;2024-03-22T11:40:35;4.63;;;3.10;;
73672;SDS011;61972;19.480;-99.240;2024-03-22T11:43:02;4.88;;;3.20;;
73672;SDS011;61972;19.480;-99.240;2024-03-22T11:45:30;5.32;;;3.55;;
73672;SDS011;61972;19.480;-99.240;2024-03-22T11:48:01;4.73;;;3.20;;
73672;SDS011;61972;19.480;-99.240;2024-03-22T11:50:28;5.05;;;3.13;;
73672;SDS011;61972;19.480;-99.240;2024-03-22T11:52:55;4.30;;;3.00;;
73672;SDS011;61972;19.480;-99.240;2024-03-22T11:55:21;4.18;;;2.80;;
73672;SDS011;61972;19.480;-99.240;2024-03-22T11:57:48;5.05;;;3.20;;
73672;SDS011;61972;19.480;-99.240;2024-03-22T12:00:15;4.67;;;3.00;;
73672;SDS011;61972;19.480;-99.240;2024-03-22T12:02:42;5.05;;;2.95;;
73672;SDS011;61972;19.480;-99.240;2024-03-22T12:05:09;4.10;;;2.90;;
73672;SDS011;61972;19.480;-99.240;2024-03-22T12:07:36;5.50;;;2.97;;
73672;SDS011;61972;19.480;-99.240;2024-03-22T12:10:04;4.25;;;2.80;;
73672;SDS011;61972;19.480;-99.240;2024-03-22T12:12:30;4.57;;;2.60;;
73672;SDS011;61972;19.480;-99.240;2024-03-22T12:14:56;3.53;;;2.25;;
73672;SDS011;61972;19.480;-99.240;2024-03-22T12:17:23;4.70;;;3.25;;
73672;SDS011;61972;19.480;-99.240;2024-03-22T12:19:49;3.80;;;2.50;;
73672;SDS011;61972;19.480;-99.240;2024-03-22T12:22:15;4.10;;;2.80;;
73672;SDS011;61972;19.480;-99.240;2024-03-22T12:24:41;4.57;;;3.10;;
73672;SDS011;61972;19.480;-99.240;2024-03-22T12:27:07;3.92;;;2.63;;
73672;SDS011;61972;19.480;-99.240;2024-03-22T12:29:33;4.40;;;2.90;;
73672;SDS011;61972;19.480;-99.240;2024-03-22T12:32:01;4.80;;;2.90;;
73672;SDS011;61972;19.480;-99.240;2024-03-22T12:34:29;4.70;;;2.88;;
73672;SDS011;61972;19.480;-99.240;2024-03-22T12:36:55;4.03;;;2.30;;
73672;SDS011;61972;19.480;-99.240;2024-03-22T12:39:22;4.60;;;2.95;;
73672;SDS011;61972;19.480;-99.240;2024-03-22T12:41:48;4.13;;;2.70;;
73672;SDS011;61972;19.480;-99.240;2024-03-22T12:44:14;4.18;;;2.85;;
73672;SDS011;61972;19.480;-99.240;2024-03-22T12:46:40;5.78;;;2.70;;
73672;SDS011;61972;19.480;-99.240;2024-03-22T12:49:11;4.27;;;2.83;;
73672;SDS011;61972;19.480;-99.240;2024-03-22T12:51:37;4.32;;;2.60;;
73672;SDS011;61972;19.480;-99.240;2024-03-22T12:54:04;5.03;;;2.63;;
73672;SDS011;61972;19.480;-99.240;2024-03-22T12:56:33;5.45;;;2.70;;
73672;SDS011;61972;19.480;-99.240;2024-03-22T12:59:02;4.15;;;2.50;;
73672;SDS011;61972;19.480;-99.240;2024-03-22T13:01:28;4.10;;;2.73;;
73672;SDS011;61972;19.480;-99.240;2024-03-22T13:03:54;3.75;;;2.55;;
73672;SDS011;61972;19.480;-99.240;2024-03-22T13:06:20;3.97;;;2.80;;
73672;SDS011;61972;19.480;-99.240;2024-03-22T13:08:46;4.80;;;2.80;;
73672;SDS011;61972;19.480;-99.240;2024-03-22T13:11:12;4.55;;;2.50;;
73672;SDS011;61972;19.480;-99.240;2024-03-22T13:13:39;4.50;;;2.40;;
73672;SDS011;61972;19.480;-99.240;2024-03-22T13:16:05;5.05;;;2.58;;
73672;SDS011;61972;19.480;-99.240;2024-03-22T13:18:32;3.88;;;2.72;;
73672;SDS011;61972;19.480;-99.240;2024-03-22T13:20:58;3.95;;;2.80;;
73672;SDS011;61972;19.480;-99.240;2024-03-22T13:23:25;4.85;;;2.80;;
73672;SDS011;61972;19.480;-99.240;2024-03-22T13:25:51;4.23;;;2.77;;
73672;SDS011;61972;19.480;-99.240;2024-03-22T13:28:18;4.75;;;2.60;;
73672;SDS011;61972;19.480;-99.240;2024-03-22T13:30:48;4.07;;;2.47;;
73672;SDS011;61972;19.480;-99.240;2024-03-22T13:33:14;5.90;;;2.80;;
73672;SDS011;61972;19.480;-99.240;2024-03-22T13:35:40;4.25;;;2.78;;
73672;SDS011;61972;19.480;-99.240;2024-03-22T13:38:07;3.70;;;2.43;;
73672;SDS011;61972;19.480;-99.240;2024-03-22T13:40:38;5.28;;;2.67;;
73672;SDS011;61972;19.480;-99.240;2024-03-22T13:43:06;4.57;;;3.00;;
73672;SDS011;61972;19.480;-99.240;2024-03-22T13:45:32;3.40;;;2.30;;
73672;SDS011;61972;19.480;-99.240;2024-03-22T13:48:09;4.90;;;2.78;;
73672;SDS011;61972;19.480;-99.240;2024-03-22T13:50:37;4.23;;;2.50;;
73672;SDS011;61972;19.480;-99.240;2024-03-22T13:53:03;3.83;;;2.58;;
73672;SDS011;61972;19.480;-99.240;2024-03-22T13:55:29;3.92;;;2.47;;
73672;SDS011;61972;19.480;-99.240;2024-03-22T13:57:57;3.65;;;2.53;;
73672;SDS011;61972;19.480;-99.240;2024-03-22T14:00:26;3.60;;;2.33;;
73672;SDS011;61972;19.480;-99.240;2024-03-22T14:02:52;4.20;;;2.67;;
73672;SDS011;61972;19.480;-99.240;2024-03-22T14:05:20;3.88;;;2.28;;
73672;SDS011;61972;19.480;-99.240;2024-03-22T14:07:46;4.03;;;2.75;;
73672;SDS011;61972;19.480;-99.240;2024-03-22T14:10:13;3.80;;;2.30;;
73672;SDS011;61972;19.480;-99.240;2024-03-22T14:12:41;4.57;;;2.45;;
73672;SDS011;61972;19.480;-99.240;2024-03-22T14:15:08;3.53;;;2.37;;